sensor_id;sensor_type;location;lat;lon;timestamp;P1;durP1;ratioP1;P2;durP2;ratioP2
39098;SDS011;24844;52.380;7.018;2023-11-21T00:00:03;199.38;;;43.45;;
39098;SDS011;24844;52.380;7.018;2023-11-21T00:02:35;142.95;;;34.33;;
39098;SDS011;24844;52.380;7.018;2023-11-21T00:05:02;226.98;;;45.20;;
39098;SDS011;24844;52.380;7.018;2023-11-21T00:07:28;221.93;;;45.13;;
39098;SDS011;24844;52.380;7.018;2023-11-21T00:09:53;231.40;;;45.00;;
39098;SDS011;24844;52.380;7.018;2023-11-21T00:12:21;228.32;;;44.15;;
39098;SDS011;24844;52.380;7.018;2023-11-21T00:14:46;219.32;;;44.80;;
39098;SDS011;24844;52.380;7.018;2023-11-21T00:17:12;277.95;;;49.60;;
39098;SDS011;24844;52.380;7.018;2023-11-21T00:19:37;284.88;;;48.28;;
39098;SDS011;24844;52.380;7.018;2023-11-21T00:22:03;252.70;;;45.35;;
39098;SDS011;24844;52.380;7.018;2023-11-21T00:24:29;237.00;;;43.55;;
39098;SDS011;24844;52.380;7.018;2023-11-21T00:26:54;242.82;;;43.63;;
39098;SDS011;24844;52.380;7.018;2023-11-21T00:29:20;248.18;;;46.28;;
39098;SDS011;24844;52.380;7.018;2023-11-21T00:31:45;221.80;;;39.65;;
39098;SDS011;24844;52.380;7.018;2023-11-21T00:34:11;250.25;;;44.75;;
39098;SDS011;24844;52.380;7.018;2023-11-21T00:36:37;245.00;;;43.92;;
39098;SDS011;24844;52.380;7.018;2023-11-21T00:39:03;252.93;;;44.42;;
39098;SDS011;24844;52.380;7.018;2023-11-21T00:41:30;182.23;;;39.40;;
39098;SDS011;24844;52.380;7.018;2023-11-21T00:43:56;257.08;;;45.78;;
39098;SDS011;24844;52.380;7.018;2023-11-21T00:46:22;214.55;;;42.63;;
39098;SDS011;24844;52.380;7.018;2023-11-21T00:48:49;205.70;;;40.25;;
39098;SDS011;24844;52.380;7.018;2023-11-21T00:51:14;308.00;;;46.45;;
39098;SDS011;24844;52.380;7.018;2023-11-21T00:53:40;195.10;;;40.45;;
39098;SDS011;24844;52.380;7.018;2023-11-21T00:56:05;277.42;;;46.40;;
39098;SDS011;24844;52.380;7.018;2023-11-21T00:58:33;276.42;;;47.33;;
39098;SDS011;24844;52.380;7.018;2023-11-21T01:00:59;200.30;;;39.90;;
39098;SDS011;24844;52.380;7.018;2023-11-21T01:03:24;171.63;;;38.47;;
39098;SDS011;24844;52.380;7.018;2023-11-21T01:05:50;231.27;;;46.03;;
39098;SDS011;24844;52.380;7.018;2023-11-21T01:08:15;232.55;;;45.75;;
39098;SDS011;24844;52.380;7.018;2023-11-21T01:10:41;219.52;;;43.03;;
39098;SDS011;24844;52.380;7.018;2023-11-21T01:13:07;300.42;;;49.53;;
39098;SDS011;24844;52.380;7.018;2023-11-21T01:15:33;227.60;;;43.08;;
39098;SDS011;24844;52.380;7.018;2023-11-21T01:17:59;244.27;;;43.70;;
39098;SDS011;24844;52.380;7.018;2023-11-21T01:20:24;294.90;;;44.85;;
39098;SDS011;24844;52.380;7.018;2023-11-21T01:22:51;133.93;;;33.53;;
39098;SDS011;24844;52.380;7.018;2023-11-21T01:25:16;217.95;;;41.92;;
39098;SDS011;24844;52.380;7.018;2023-11-21T01:27:42;266.23;;;46.42;;
39098;SDS011;24844;52.380;7.018;2023-11-21T01:30:08;263.98;;;47.80;;
39098;SDS011;24844;52.380;7.018;2023-11-21T01:32:37;142.00;;;34.33;;
39098;SDS011;24844;52.380;7.018;2023-11-21T01:35:03;283.25;;;49.00;;
39098;SDS011;24844;52.380;7.018;2023-11-21T01:37:31;260.58;;;47.50;;
39098;SDS011;24844;52.380;7.018;2023-11-21T01:39:56;268.00;;;49.03;;
39098;SDS011;24844;52.380;7.018;2023-11-21T01:42:22;263.60;;;49.63;;
39098;SDS011;24844;52.380;7.018;2023-11-21T01:44:48;214.13;;;44.50;;
39098;SDS011;24844;52.380;7.018;2023-11-21T01:47:14;254.57;;;50.85;;
39098;SDS011;24844;52.380;7.018;2023-11-21T01:49:40;276.75;;;51.15;;
39098;SDS011;24844;52.380;7.018;2023-11-21T01:52:09;254.95;;;50.80;;
39098;SDS011;24844;52.380;7.018;2023-11-21T01:54:36;282.92;;;53.75;;
39098;SDS011;24844;52.380;7.018;2023-11-21T01:57:02;292.98;;;55.05;;
39098;SDS011;24844;52.380;7.018;2023-11-21T01:59:33;254.68;;;51.20;;
39098;SDS011;24844;52.380;7.018;2023-11-21T02:02:03;264.83;;;54.42;;
39098;SDS011;24844;52.380;7.018;2023-11-21T02:04:31;218.43;;;49.58;;
39098;SDS011;24844;52.380;7.018;2023-11-21T02:07:00;277.67;;;56.30;;
39098;SDS011;24844;52.380;7.018;2023-11-21T02:09:26;254.63;;;54.88;;
39098;SDS011;24844;52.380;7.018;2023-11-21T02:11:52;197.85;;;46.53;;
39098;SDS011;24844;52.380;7.018;2023-11-21T02:14:19;195.32;;;47.33;;
39098;SDS011;24844;52.380;7.018;2023-11-21T02:16:47;164.93;;;44.15;;
39098;SDS011;24844;52.380;7.018;2023-11-21T02:19:19;232.68;;;52.50;;
39098;SDS011;24844;52.380;7.018;2023-11-21T02:21:54;151.05;;;41.92;;
39098;SDS011;24844;52.380;7.018;2023-11-21T02:24:24;213.57;;;50.58;;
39098;SDS011;24844;52.380;7.018;2023-11-21T02:26:50;234.32;;;51.45;;
39098;SDS011;24844;52.380;7.018;2023-11-21T02:29:19;163.93;;;41.97;;
39098;SDS011;24844;52.380;7.018;2023-11-21T02:31:53;257.52;;;53.75;;
39098;SDS011;24844;52.380;7.018;2023-11-21T02:34:19;263.13;;;51.78;;
39098;SDS011;24844;52.380;7.018;2023-11-21T02:36:46;250.25;;;51.63;;
39098;SDS011;24844;52.380;7.018;2023-11-21T02:39:14;174.90;;;45.22;;
39098;SDS011;24844;52.380;7.018;2023-11-21T02:41:41;172.88;;;44.88;;
39098;SDS011;24844;52.380;7.018;2023-11-21T02:44:07;164.32;;;45.05;;
39098;SDS011;24844;52.380;7.018;2023-11-21T02:46:34;197.20;;;47.92;;
39098;SDS011;24844;52.380;7.018;2023-11-21T02:49:03;153.45;;;43.78;;
39098;SDS011;24844;52.380;7.018;2023-11-21T02:51:29;254.52;;;53.22;;
39098;SDS011;24844;52.380;7.018;2023-11-21T02:53:55;243.30;;;52.03;;
39098;SDS011;24844;52.380;7.018;2023-11-21T02:56:26;252.65;;;53.38;;
39098;SDS011;24844;52.380;7.018;2023-11-21T02:58:52;267.77;;;55.13;;
39098;SDS011;24844;52.380;7.018;2023-11-21T03:01:20;268.70;;;53.95;;
39098;SDS011;24844;52.380;7.018;2023-11-21T03:03:46;279.25;;;54.38;;
39098;SDS011;24844;52.380;7.018;2023-11-21T03:06:12;232.38;;;50.95;;
39098;SDS011;24844;52.380;7.018;2023-11-21T03:08:38;200.88;;;46.15;;
39098;SDS011;24844;52.380;7.018;2023-11-21T03:11:03;241.40;;;49.92;;
39098;SDS011;24844;52.380;7.018;2023-11-21T03:13:29;250.30;;;52.60;;
39098;SDS011;24844;52.380;7.018;2023-11-21T03:15:55;233.57;;;50.97;;
39098;SDS011;24844;52.380;7.018;2023-11-21T03:18:20;213.70;;;48.85;;
39098;SDS011;24844;52.380;7.018;2023-11-21T03:20:49;234.85;;;49.13;;
39098;SDS011;24844;52.380;7.018;2023-11-21T03:23:17;221.35;;;48.22;;
39098;SDS011;24844;52.380;7.018;2023-11-21T03:25:42;213.32;;;51.40;;
39098;SDS011;24844;52.380;7.018;2023-11-21T03:28:08;267.73;;;51.80;;
39098;SDS011;24844;52.380;7.018;2023-11-21T03:30:33;249.63;;;52.30;;
39098;SDS011;24844;52.380;7.018;2023-11-21T03:32:59;236.65;;;55.00;;
39098;SDS011;24844;52.380;7.018;2023-11-21T03:35:25;267.70;;;56.20;;
39098;SDS011;24844;52.380;7.018;2023-11-21T03:37:51;264.92;;;57.28;;
39098;SDS011;24844;52.380;7.018;2023-11-21T03:40:17;326.02;;;63.33;;
39098;SDS011;24844;52.380;7.018;2023-11-21T03:42:42;234.93;;;54.15;;
39098;SDS011;24844;52.380;7.018;2023-11-21T03:45:08;223.20;;;56.80;;
39098;SDS011;24844;52.380;7.018;2023-11-21T03:47:34;221.38;;;55.25;;
39098;SDS011;24844;52.380;7.018;2023-11-21T03:49:59;243.85;;;57.08;;
39098;SDS011;24844;52.380;7.018;2023-11-21T03:52:25;262.65;;;59.88;;
39098;SDS011;24844;52.380;7.018;2023-11-21T03:54:52;285.63;;;60.67;;
39098;SDS011;24844;52.380;7.018;2023-11-21T03:57:17;220.00;;;54.78;;
39098;SDS011;24844;52.380;7.018;2023-11-21T03:59:43;270.42;;;56.85;;
39098;SDS011;24844;52.380;7.018;2023-11-21T04:02:09;284.83;;;57.90;;
39098;SDS011;24844;52.380;7.018;2023-11-21T04:04:35;233.98;;;52.65;;
39098;SDS011;24844;52.380;7.018;2023-11-21T04:07:01;230.50;;;52.78;;
39098;SDS011;24844;52.380;7.018;2023-11-21T04:09:26;203.55;;;49.47;;
39098;SDS011;24844;52.380;7.018;2023-11-21T04:11:53;208.82;;;49.90;;
39098;SDS011;24844;52.380;7.018;2023-11-21T04:14:19;188.10;;;47.63;;
39098;SDS011;24844;52.380;7.018;2023-11-21T04:16:44;231.13;;;52.17;;
39098;SDS011;24844;52.380;7.018;2023-11-21T04:19:10;222.50;;;51.20;;
39098;SDS011;24844;52.380;7.018;2023-11-21T04:21:36;247.95;;;52.88;;
39098;SDS011;24844;52.380;7.018;2023-11-21T04:24:02;260.73;;;55.00;;
39098;SDS011;24844;52.380;7.018;2023-11-21T04:26:28;205.13;;;52.17;;
39098;SDS011;24844;52.380;7.018;2023-11-21T04:28:53;246.57;;;58.17;;
39098;SDS011;24844;52.380;7.018;2023-11-21T04:31:19;266.77;;;58.90;;
39098;SDS011;24844;52.380;7.018;2023-11-21T04:33:44;256.52;;;56.65;;
39098;SDS011;24844;52.380;7.018;2023-11-21T04:36:10;230.85;;;54.35;;
39098;SDS011;24844;52.380;7.018;2023-11-21T04:38:36;233.73;;;56.58;;
39098;SDS011;24844;52.380;7.018;2023-11-21T04:41:01;228.70;;;55.22;;
39098;SDS011;24844;52.380;7.018;2023-11-21T04:43:27;193.35;;;46.42;;
39098;SDS011;24844;52.380;7.018;2023-11-21T04:45:52;273.23;;;60.33;;
39098;SDS011;24844;52.380;7.018;2023-11-21T04:48:19;246.05;;;57.42;;
39098;SDS011;24844;52.380;7.018;2023-11-21T04:50:45;277.30;;;60.88;;
39098;SDS011;24844;52.380;7.018;2023-11-21T04:53:10;271.30;;;61.65;;
39098;SDS011;24844;52.380;7.018;2023-11-21T04:55:38;206.30;;;55.95;;
39098;SDS011;24844;52.380;7.018;2023-11-21T04:58:04;227.18;;;56.75;;
39098;SDS011;24844;52.380;7.018;2023-11-21T05:00:30;139.00;;;40.08;;
39098;SDS011;24844;52.380;7.018;2023-11-21T05:02:55;237.30;;;57.10;;
39098;SDS011;24844;52.380;7.018;2023-11-21T05:05:21;273.83;;;63.13;;
39098;SDS011;24844;52.380;7.018;2023-11-21T05:07:47;268.77;;;60.30;;
39098;SDS011;24844;52.380;7.018;2023-11-21T05:10:14;253.40;;;57.97;;
39098;SDS011;24844;52.380;7.018;2023-11-21T05:12:40;271.20;;;59.55;;
39098;SDS011;24844;52.380;7.018;2023-11-21T05:15:07;224.35;;;55.10;;
39098;SDS011;24844;52.380;7.018;2023-11-21T05:17:36;205.77;;;52.35;;
39098;SDS011;24844;52.380;7.018;2023-11-21T05:20:04;218.30;;;53.63;;
39098;SDS011;24844;52.380;7.018;2023-11-21T05:22:33;231.13;;;57.58;;
39098;SDS011;24844;52.380;7.018;2023-11-21T05:24:59;207.60;;;52.95;;
39098;SDS011;24844;52.380;7.018;2023-11-21T05:27:25;228.57;;;55.28;;
39098;SDS011;24844;52.380;7.018;2023-11-21T05:29:51;248.43;;;55.58;;
39098;SDS011;24844;52.380;7.018;2023-11-21T05:32:17;252.63;;;55.92;;
39098;SDS011;24844;52.380;7.018;2023-11-21T05:34:42;252.70;;;53.97;;
39098;SDS011;24844;52.380;7.018;2023-11-21T05:37:08;291.65;;;57.78;;
39098;SDS011;24844;52.380;7.018;2023-11-21T05:39:34;251.50;;;56.55;;
39098;SDS011;24844;52.380;7.018;2023-11-21T05:42:01;310.67;;;63.40;;
39098;SDS011;24844;52.380;7.018;2023-11-21T05:44:26;307.45;;;61.00;;
39098;SDS011;24844;52.380;7.018;2023-11-21T05:46:52;275.38;;;56.85;;
39098;SDS011;24844;52.380;7.018;2023-11-21T05:49:18;685.55;;;85.03;;
39098;SDS011;24844;52.380;7.018;2023-11-21T05:51:46;320.77;;;61.10;;
39098;SDS011;24844;52.380;7.018;2023-11-21T05:54:12;350.85;;;60.15;;
39098;SDS011;24844;52.380;7.018;2023-11-21T05:56:38;289.90;;;62.20;;
39098;SDS011;24844;52.380;7.018;2023-11-21T05:59:03;285.45;;;61.33;;
39098;SDS011;24844;52.380;7.018;2023-11-21T06:01:29;289.45;;;61.20;;
39098;SDS011;24844;52.380;7.018;2023-11-21T06:03:54;297.88;;;64.47;;
39098;SDS011;24844;52.380;7.018;2023-11-21T06:06:20;234.50;;;56.63;;
39098;SDS011;24844;52.380;7.018;2023-11-21T06:08:48;296.80;;;57.78;;
39098;SDS011;24844;52.380;7.018;2023-11-21T06:11:14;322.08;;;61.90;;
39098;SDS011;24844;52.380;7.018;2023-11-21T06:13:41;366.08;;;70.28;;
39098;SDS011;24844;52.380;7.018;2023-11-21T06:16:07;304.38;;;61.35;;
39098;SDS011;24844;52.380;7.018;2023-11-21T06:18:32;314.15;;;59.80;;
39098;SDS011;24844;52.380;7.018;2023-11-21T06:20:58;291.02;;;61.85;;
39098;SDS011;24844;52.380;7.018;2023-11-21T06:23:25;229.35;;;54.88;;
39098;SDS011;24844;52.380;7.018;2023-11-21T06:25:51;296.98;;;62.33;;
39098;SDS011;24844;52.380;7.018;2023-11-21T06:28:17;272.77;;;59.35;;
39098;SDS011;24844;52.380;7.018;2023-11-21T06:30:43;263.58;;;58.90;;
39098;SDS011;24844;52.380;7.018;2023-11-21T06:33:09;283.38;;;61.90;;
39098;SDS011;24844;52.380;7.018;2023-11-21T06:35:36;1662.03;;;115.47;;
39098;SDS011;24844;52.380;7.018;2023-11-21T06:38:01;267.20;;;57.53;;
39098;SDS011;24844;52.380;7.018;2023-11-21T06:40:27;254.27;;;56.75;;
39098;SDS011;24844;52.380;7.018;2023-11-21T06:42:53;260.00;;;57.90;;
39098;SDS011;24844;52.380;7.018;2023-11-21T06:45:19;277.77;;;60.67;;
39098;SDS011;24844;52.380;7.018;2023-11-21T06:47:45;238.40;;;55.78;;
39098;SDS011;24844;52.380;7.018;2023-11-21T06:50:10;249.63;;;56.10;;
39098;SDS011;24844;52.380;7.018;2023-11-21T06:52:36;220.98;;;53.50;;
39098;SDS011;24844;52.380;7.018;2023-11-21T06:55:02;240.02;;;55.40;;
39098;SDS011;24844;52.380;7.018;2023-11-21T06:57:28;245.30;;;58.60;;
39098;SDS011;24844;52.380;7.018;2023-11-21T06:59:54;223.85;;;56.28;;
39098;SDS011;24844;52.380;7.018;2023-11-21T07:02:19;228.32;;;56.28;;
39098;SDS011;24844;52.380;7.018;2023-11-21T07:04:45;256.58;;;59.03;;
39098;SDS011;24844;52.380;7.018;2023-11-21T07:07:11;260.40;;;60.20;;
39098;SDS011;24844;52.380;7.018;2023-11-21T07:09:37;261.40;;;63.33;;
39098;SDS011;24844;52.380;7.018;2023-11-21T07:12:02;270.35;;;63.20;;
39098;SDS011;24844;52.380;7.018;2023-11-21T07:14:30;247.35;;;58.00;;
39098;SDS011;24844;52.380;7.018;2023-11-21T07:16:57;245.65;;;56.58;;
39098;SDS011;24844;52.380;7.018;2023-11-21T07:19:22;266.15;;;58.10;;
39098;SDS011;24844;52.380;7.018;2023-11-21T07:21:48;274.05;;;59.67;;
39098;SDS011;24844;52.380;7.018;2023-11-21T07:24:16;244.23;;;57.85;;
39098;SDS011;24844;52.380;7.018;2023-11-21T07:26:42;245.85;;;56.67;;
39098;SDS011;24844;52.380;7.018;2023-11-21T07:29:08;240.43;;;58.22;;
39098;SDS011;24844;52.380;7.018;2023-11-21T07:31:33;254.18;;;57.72;;
39098;SDS011;24844;52.380;7.018;2023-11-21T07:33:59;236.98;;;55.65;;
39098;SDS011;24844;52.380;7.018;2023-11-21T07:36:25;228.13;;;57.63;;
39098;SDS011;24844;52.380;7.018;2023-11-21T07:38:51;223.48;;;57.05;;
39098;SDS011;24844;52.380;7.018;2023-11-21T07:41:17;233.63;;;56.35;;
39098;SDS011;24844;52.380;7.018;2023-11-21T07:43:46;233.55;;;57.67;;
39098;SDS011;24844;52.380;7.018;2023-11-21T07:48:38;236.38;;;55.38;;
39098;SDS011;24844;52.380;7.018;2023-11-21T07:51:05;208.70;;;53.22;;
39098;SDS011;24844;52.380;7.018;2023-11-21T07:53:31;223.65;;;57.85;;
39098;SDS011;24844;52.380;7.018;2023-11-21T07:55:58;201.80;;;52.97;;
39098;SDS011;24844;52.380;7.018;2023-11-21T07:58:27;173.63;;;45.47;;
39098;SDS011;24844;52.380;7.018;2023-11-21T08:00:53;206.77;;;54.42;;
39098;SDS011;24844;52.380;7.018;2023-11-21T08:03:19;200.73;;;54.33;;
39098;SDS011;24844;52.380;7.018;2023-11-21T08:05:44;194.02;;;54.45;;
39098;SDS011;24844;52.380;7.018;2023-11-21T08:08:10;199.23;;;56.40;;
39098;SDS011;24844;52.380;7.018;2023-11-21T08:10:36;181.88;;;54.08;;
39098;SDS011;24844;52.380;7.018;2023-11-21T08:13:02;166.85;;;52.22;;
39098;SDS011;24844;52.380;7.018;2023-11-21T08:15:28;181.32;;;52.35;;
39098;SDS011;24844;52.380;7.018;2023-11-21T08:17:54;168.88;;;51.75;;
39098;SDS011;24844;52.380;7.018;2023-11-21T08:20:20;164.30;;;47.92;;
39098;SDS011;24844;52.380;7.018;2023-11-21T08:22:47;184.40;;;52.97;;
39098;SDS011;24844;52.380;7.018;2023-11-21T08:25:13;170.82;;;50.22;;
39098;SDS011;24844;52.380;7.018;2023-11-21T08:27:39;170.18;;;51.85;;
39098;SDS011;24844;52.380;7.018;2023-11-21T08:30:05;166.50;;;50.83;;
39098;SDS011;24844;52.380;7.018;2023-11-21T08:32:32;162.90;;;52.60;;
39098;SDS011;24844;52.380;7.018;2023-11-21T08:34:58;151.73;;;48.80;;
39098;SDS011;24844;52.380;7.018;2023-11-21T08:37:24;168.45;;;53.92;;
39098;SDS011;24844;52.380;7.018;2023-11-21T08:39:52;177.25;;;52.47;;
39098;SDS011;24844;52.380;7.018;2023-11-21T08:42:18;162.18;;;50.53;;
39098;SDS011;24844;52.380;7.018;2023-11-21T08:44:44;156.15;;;49.35;;
39098;SDS011;24844;52.380;7.018;2023-11-21T08:47:09;151.10;;;49.35;;
39098;SDS011;24844;52.380;7.018;2023-11-21T08:49:35;152.68;;;48.75;;
39098;SDS011;24844;52.380;7.018;2023-11-21T08:52:01;137.90;;;47.40;;
39098;SDS011;24844;52.380;7.018;2023-11-21T08:54:27;152.13;;;46.67;;
39098;SDS011;24844;52.380;7.018;2023-11-21T08:56:53;147.07;;;48.70;;
39098;SDS011;24844;52.380;7.018;2023-11-21T08:59:19;144.25;;;47.05;;
39098;SDS011;24844;52.380;7.018;2023-11-21T09:01:45;132.15;;;44.78;;
39098;SDS011;24844;52.380;7.018;2023-11-21T09:04:12;121.13;;;41.85;;
39098;SDS011;24844;52.380;7.018;2023-11-21T09:06:38;152.68;;;50.78;;
39098;SDS011;24844;52.380;7.018;2023-11-21T09:09:04;143.95;;;49.25;;
39098;SDS011;24844;52.380;7.018;2023-11-21T09:11:31;123.85;;;42.05;;
39098;SDS011;24844;52.380;7.018;2023-11-21T09:14:00;125.45;;;43.90;;
39098;SDS011;24844;52.380;7.018;2023-11-21T09:16:26;131.25;;;45.03;;
39098;SDS011;24844;52.380;7.018;2023-11-21T09:18:52;143.63;;;47.15;;
39098;SDS011;24844;52.380;7.018;2023-11-21T09:21:17;150.85;;;47.45;;
39098;SDS011;24844;52.380;7.018;2023-11-21T09:23:46;137.68;;;45.88;;
39098;SDS011;24844;52.380;7.018;2023-11-21T09:26:13;146.05;;;47.03;;
39098;SDS011;24844;52.380;7.018;2023-11-21T09:28:41;141.32;;;45.72;;
39098;SDS011;24844;52.380;7.018;2023-11-21T09:31:11;129.75;;;43.42;;
39098;SDS011;24844;52.380;7.018;2023-11-21T09:33:36;133.18;;;41.95;;
39098;SDS011;24844;52.380;7.018;2023-11-21T09:36:03;115.75;;;39.97;;
39098;SDS011;24844;52.380;7.018;2023-11-21T09:38:30;120.88;;;39.78;;
39098;SDS011;24844;52.380;7.018;2023-11-21T09:40:55;123.28;;;38.58;;
39098;SDS011;24844;52.380;7.018;2023-11-21T09:43:23;127.55;;;39.88;;
39098;SDS011;24844;52.380;7.018;2023-11-21T09:45:56;117.63;;;38.80;;
39098;SDS011;24844;52.380;7.018;2023-11-21T09:48:26;120.85;;;38.15;;
39098;SDS011;24844;52.380;7.018;2023-11-21T09:50:51;112.57;;;36.45;;
39098;SDS011;24844;52.380;7.018;2023-11-21T09:53:19;104.40;;;35.92;;
39098;SDS011;24844;52.380;7.018;2023-11-21T09:55:46;102.63;;;36.53;;
39098;SDS011;24844;52.380;7.018;2023-11-21T09:58:14;97.22;;;33.97;;
39098;SDS011;24844;52.380;7.018;2023-11-21T10:00:44;100.25;;;33.75;;
39098;SDS011;24844;52.380;7.018;2023-11-21T10:03:13;84.57;;;32.00;;
39098;SDS011;24844;52.380;7.018;2023-11-21T10:05:42;80.15;;;31.67;;
39098;SDS011;24844;52.380;7.018;2023-11-21T10:08:09;94.95;;;32.35;;
39098;SDS011;24844;52.380;7.018;2023-11-21T10:10:36;98.05;;;34.20;;
39098;SDS011;24844;52.380;7.018;2023-11-21T10:13:03;80.40;;;29.42;;
39098;SDS011;24844;52.380;7.018;2023-11-21T10:15:35;92.85;;;32.13;;
39098;SDS011;24844;52.380;7.018;2023-11-21T10:18:04;84.95;;;30.20;;
39098;SDS011;24844;52.380;7.018;2023-11-21T10:20:32;88.70;;;31.58;;
39098;SDS011;24844;52.380;7.018;2023-11-21T10:22:58;93.72;;;32.78;;
39098;SDS011;24844;52.380;7.018;2023-11-21T10:25:27;90.72;;;31.48;;
39098;SDS011;24844;52.380;7.018;2023-11-21T10:27:57;85.93;;;29.83;;
39098;SDS011;24844;52.380;7.018;2023-11-21T10:30:32;79.68;;;27.70;;
39098;SDS011;24844;52.380;7.018;2023-11-21T10:32:58;84.28;;;29.27;;
39098;SDS011;24844;52.380;7.018;2023-11-21T10:38:03;87.07;;;30.08;;
39098;SDS011;24844;52.380;7.018;2023-11-21T10:40:29;76.63;;;27.58;;
39098;SDS011;24844;52.380;7.018;2023-11-21T10:42:54;72.85;;;25.95;;
39098;SDS011;24844;52.380;7.018;2023-11-21T10:45:30;70.45;;;26.27;;
39098;SDS011;24844;52.380;7.018;2023-11-21T10:47:56;67.85;;;26.90;;
39098;SDS011;24844;52.380;7.018;2023-11-21T10:50:21;67.88;;;27.70;;
39098;SDS011;24844;52.380;7.018;2023-11-21T10:52:50;63.83;;;26.95;;
39098;SDS011;24844;52.380;7.018;2023-11-21T10:55:17;71.10;;;29.30;;
39098;SDS011;24844;52.380;7.018;2023-11-21T10:57:48;77.45;;;29.58;;
39098;SDS011;24844;52.380;7.018;2023-11-21T11:00:15;73.35;;;30.45;;
39098;SDS011;24844;52.380;7.018;2023-11-21T11:02:45;77.30;;;30.23;;
39098;SDS011;24844;52.380;7.018;2023-11-21T11:05:15;70.65;;;27.38;;
39098;SDS011;24844;52.380;7.018;2023-11-21T11:07:43;67.10;;;27.30;;
39098;SDS011;24844;52.380;7.018;2023-11-21T11:10:10;97.47;;;33.70;;
39098;SDS011;24844;52.380;7.018;2023-11-21T11:12:39;100.40;;;34.70;;
39098;SDS011;24844;52.380;7.018;2023-11-21T11:15:06;86.82;;;32.15;;
39098;SDS011;24844;52.380;7.018;2023-11-21T11:17:34;87.82;;;32.75;;
39098;SDS011;24844;52.380;7.018;2023-11-21T11:20:03;87.55;;;33.38;;
39098;SDS011;24844;52.380;7.018;2023-11-21T11:27:52;89.63;;;34.47;;
39098;SDS011;24844;52.380;7.018;2023-11-21T11:33:48;75.78;;;31.48;;
39098;SDS011;24844;52.380;7.018;2023-11-21T11:36:29;70.03;;;31.13;;
39098;SDS011;24844;52.380;7.018;2023-11-21T11:38:59;75.68;;;32.60;;
39098;SDS011;24844;52.380;7.018;2023-11-21T11:41:27;69.13;;;29.95;;
39098;SDS011;24844;52.380;7.018;2023-11-21T11:43:57;66.57;;;30.92;;
39098;SDS011;24844;52.380;7.018;2023-11-21T11:46:57;60.83;;;30.90;;
39098;SDS011;24844;52.380;7.018;2023-11-21T11:52:40;61.05;;;32.00;;
39098;SDS011;24844;52.380;7.018;2023-11-21T11:55:08;57.42;;;32.45;;
39098;SDS011;24844;52.380;7.018;2023-11-21T11:57:47;55.40;;;32.22;;
39098;SDS011;24844;52.380;7.018;2023-11-21T12:00:21;56.35;;;32.00;;
39098;SDS011;24844;52.380;7.018;2023-11-21T12:03:08;57.03;;;34.20;;
39098;SDS011;24844;52.380;7.018;2023-11-21T12:05:34;64.15;;;35.58;;
39098;SDS011;24844;52.380;7.018;2023-11-21T12:08:04;64.22;;;34.92;;
39098;SDS011;24844;52.380;7.018;2023-11-21T12:10:31;55.93;;;33.33;;
39098;SDS011;24844;52.380;7.018;2023-11-21T12:13:03;58.10;;;31.60;;
39098;SDS011;24844;52.380;7.018;2023-11-21T12:15:32;48.55;;;30.38;;
39098;SDS011;24844;52.380;7.018;2023-11-21T12:18:00;75.43;;;33.33;;
39098;SDS011;24844;52.380;7.018;2023-11-21T12:20:26;46.17;;;30.58;;
39098;SDS011;24844;52.380;7.018;2023-11-21T12:22:53;45.70;;;30.63;;
39098;SDS011;24844;52.380;7.018;2023-11-21T12:25:22;46.25;;;33.08;;
39098;SDS011;24844;52.380;7.018;2023-11-21T12:27:49;42.53;;;31.38;;
39098;SDS011;24844;52.380;7.018;2023-11-21T12:30:16;39.78;;;30.35;;
39098;SDS011;24844;52.380;7.018;2023-11-21T12:32:43;35.67;;;26.90;;
39098;SDS011;24844;52.380;7.018;2023-11-21T12:35:11;30.10;;;25.67;;
39098;SDS011;24844;52.380;7.018;2023-11-21T12:37:38;29.05;;;23.98;;
39098;SDS011;24844;52.380;7.018;2023-11-21T12:40:05;64.32;;;23.05;;
39098;SDS011;24844;52.380;7.018;2023-11-21T12:42:33;24.55;;;21.38;;
39098;SDS011;24844;52.380;7.018;2023-11-21T12:47:51;20.60;;;17.35;;
39098;SDS011;24844;52.380;7.018;2023-11-21T12:50:30;18.55;;;15.98;;
39098;SDS011;24844;52.380;7.018;2023-11-21T12:53:01;19.40;;;16.38;;
39098;SDS011;24844;52.380;7.018;2023-11-21T12:55:43;20.13;;;15.82;;
39098;SDS011;24844;52.380;7.018;2023-11-21T12:58:15;17.38;;;15.18;;
39098;SDS011;24844;52.380;7.018;2023-11-21T13:00:47;18.45;;;14.32;;
39098;SDS011;24844;52.380;7.018;2023-11-21T13:03:15;16.73;;;12.75;;
39098;SDS011;24844;52.380;7.018;2023-11-21T13:05:43;16.33;;;13.32;;
39098;SDS011;24844;52.380;7.018;2023-11-21T13:08:11;16.98;;;13.95;;
39098;SDS011;24844;52.380;7.018;2023-11-21T13:10:42;18.95;;;13.73;;
39098;SDS011;24844;52.380;7.018;2023-11-21T13:13:12;15.38;;;12.10;;
39098;SDS011;24844;52.380;7.018;2023-11-21T13:15:49;14.02;;;11.85;;
39098;SDS011;24844;52.380;7.018;2023-11-21T13:18:22;18.20;;;12.30;;
39098;SDS011;24844;52.380;7.018;2023-11-21T13:20:49;13.73;;;11.90;;
39098;SDS011;24844;52.380;7.018;2023-11-21T13:23:15;16.35;;;12.45;;
39098;SDS011;24844;52.380;7.018;2023-11-21T13:25:41;14.15;;;10.68;;
39098;SDS011;24844;52.380;7.018;2023-11-21T13:28:10;12.07;;;10.77;;
39098;SDS011;24844;52.380;7.018;2023-11-21T13:30:36;21.95;;;11.23;;
39098;SDS011;24844;52.380;7.018;2023-11-21T13:33:05;26.98;;;10.32;;
39098;SDS011;24844;52.380;7.018;2023-11-21T13:35:37;12.55;;;9.95;;
39098;SDS011;24844;52.380;7.018;2023-11-21T13:38:07;13.05;;;9.98;;
39098;SDS011;24844;52.380;7.018;2023-11-21T13:40:35;14.02;;;9.77;;
39098;SDS011;24844;52.380;7.018;2023-11-21T13:43:14;12.45;;;10.20;;
39098;SDS011;24844;52.380;7.018;2023-11-21T13:45:41;14.15;;;9.73;;
39098;SDS011;24844;52.380;7.018;2023-11-21T13:48:08;13.60;;;10.88;;
39098;SDS011;24844;52.380;7.018;2023-11-21T13:50:39;14.20;;;10.25;;
39098;SDS011;24844;52.380;7.018;2023-11-21T13:53:13;12.63;;;9.73;;
39098;SDS011;24844;52.380;7.018;2023-11-21T13:55:51;13.15;;;9.98;;
39098;SDS011;24844;52.380;7.018;2023-11-21T13:58:22;12.27;;;10.50;;
39098;SDS011;24844;52.380;7.018;2023-11-21T14:01:07;12.90;;;10.43;;
39098;SDS011;24844;52.380;7.018;2023-11-21T14:03:51;11.80;;;10.30;;
39098;SDS011;24844;52.380;7.018;2023-11-21T14:06:22;15.57;;;10.93;;
39098;SDS011;24844;52.380;7.018;2023-11-21T14:08:57;13.65;;;11.25;;
39098;SDS011;24844;52.380;7.018;2023-11-21T14:11:23;18.88;;;10.85;;
39098;SDS011;24844;52.380;7.018;2023-11-21T14:13:49;16.52;;;9.95;;
39098;SDS011;24844;52.380;7.018;2023-11-21T14:16:15;14.20;;;10.55;;
39098;SDS011;24844;52.380;7.018;2023-11-21T14:18:42;11.05;;;9.30;;
39098;SDS011;24844;52.380;7.018;2023-11-21T14:21:18;14.30;;;10.73;;
39098;SDS011;24844;52.380;7.018;2023-11-21T14:23:44;14.15;;;9.90;;
39098;SDS011;24844;52.380;7.018;2023-11-21T14:26:10;13.48;;;10.65;;
39098;SDS011;24844;52.380;7.018;2023-11-21T14:28:39;13.95;;;10.68;;
39098;SDS011;24844;52.380;7.018;2023-11-21T14:31:04;13.25;;;10.35;;
39098;SDS011;24844;52.380;7.018;2023-11-21T14:33:30;13.93;;;10.68;;